Anstruther, United Kingdom
Current Conditions -  °F | °C
As of 12:50 PM on Thursday 30 Oct 2014 (Local Time) from EGQL Reporting Station
Broken Clouds Broken Clouds  
Wind Chill: 54°   Ceiling: 4000
Heat Index: 54°   Visibility: 6mi
Dew Point: 50°   Wind: 1mph
Humidity: 88%   Direction: 180°S
Pressure: 29.88"   Gusts: NA
Location:  56.22°N, 2.7°W
Report Text: EGQL 301250Z 18001KT 9999 SCT018 BKN040 12/10 Q1012 WHT
Loading
Personal Weather Stations






























Interactive Weather Map New forecast layout! Learn more

10-Day Weather Forecast

Advertisements
Track Severe Weather on mobile